Pagrindinis puslapis
METAR-TAF:

METAR-TAF

Oro uostai :

Alta, Norvegija

platuma: 69-59N, ilguma: 023-22E, Aukštis: 0 m

Dabartinis oras

Ataskaita buvo paskelbta 12 minutes, ne 08:20 UTC
Vėjas 8 kt iš Pietų/Pietryčių
Temperatūra -13°C
Drėgmė 72%
Slėgis 1026 hPa
Matomumas 10 km arba daugiau

METAR: ENAT 100820Z AUTO 16008KT 9999 NCD M13/M17 Q1026 RMK WIND 700FT 18011KT

Laikas: 09:32 (08:32 UTC)

Prognozė

Ataskaita buvo paskelbta 3 valandos ir 32 minutes, ne 05:00 UTC
Prognozė galioja nuo 10 metu 06 UTC su 10 metu 14 UTC
Vėjas 8 kt iš Pietų
Matomumas 10 km arba daugiau
Mažai debesys ne aukštis 3000 ft

TAF: ENAT 100500Z 1006/1014 18008KT 9999 FEW030

Orai ataskaitas ir orų prognozės (METAR, TAF).

turimą stotys yra geltonos ir raudonos taškus žemėlapyje.

Perkelti pele per norėdami pamatyti stoties vardą.

Tada spustelėkite, norėdami matyti oro stebėjimo ir prognozės.

Norėdami pakeisti žemėlapį: spustelėkite ant žalios mygtukų su juodo kryžiaus žemyn,; žalią mygtuką su brūkšneliu, jei norite nutolinti; arba žalių rodyklių gretimoms žemėlapius.


METAR-TAF: